Time;durP1;ratioP1;P1;durP2;ratioP2;P2;SDS_P1;SDS_P2;PMS_P1;PMS_P2;Temp;Humidity;BMP_temperature;BMP_pressure;BME280_temperature;BME280_humidity;BME280_pressure;Samples;Min_cycle;Max_cycle;Signal;HPM_P1;HPM_P2
2023/11/21 00:03:34;;;;;;;;;;;;;;;9.33;100.00;99438.12;180938;1260;43986;-85
2023/11/21 00:07:38;;;;;;;;;;;;;;;9.32;100.00;99438.57;181019;1260;43729;-85
2023/11/21 00:11:41;;;;;;;;;;;;;;;9.31;100.00;99436.67;180989;1259;57691;-83
2023/11/21 00:15:45;;;;;;;;;;;;;;;9.29;100.00;99440.73;180953;1260;43789;-84
2023/11/21 00:19:48;;;;;;;;;;;;;;;9.24;100.00;99437.27;181013;1260;43624;-85
2023/11/21 00:23:51;;;;;;;;;;;;;;;9.19;100.00;99441.85;180898;1260;44095;-86
2023/11/21 00:27:54;;;;;;;;;;;;;;;9.21;100.00;99446.08;180960;1259;43591;-87
2023/11/21 00:31:58;;;;;;;;;;;;;;;9.19;100.00;99448.66;180914;1259;58453;-85
2023/11/21 00:36:01;;;;;;;;;;;;;;;9.20;100.00;99448.61;180877;1262;43906;-86
2023/11/21 00:40:07;;;;;;;;;;;;;;;9.24;100.00;99448.97;181070;1260;43656;-87
2023/11/21 00:44:10;;;;;;;;;;;;;;;9.22;100.00;99447.37;180974;1260;43806;-86
2023/11/21 00:48:13;;;;;;;;;;;;;;;9.28;100.00;99442.59;181004;1260;43888;-85
2023/11/21 00:52:16;;;;;;;;;;;;;;;9.31;100.00;99443.27;180993;1259;58000;-87
2023/11/21 00:56:19;;;;;;;;;;;;;;;9.31;100.00;99447.48;180987;1259;43554;-86
2023/11/21 01:00:23;;;;;;;;;;;;;;;9.34;100.00;99450.41;181039;1260;43488;-86
2023/11/21 01:04:26;;;;;;;;;;;;;;;9.38;100.00;99450.77;181061;1260;43754;-86
2023/11/21 01:08:31;;;;;;;;;;;;;;;9.35;100.00;99451.79;181015;1259;43402;-85
2023/11/21 01:12:35;;;;;;;;;;;;;;;9.21;100.00;99450.14;181007;1259;58344;-85
2023/11/21 01:16:38;;;;;;;;;;;;;;;9.16;100.00;99452.55;181005;1259;43826;-85
2023/11/21 01:20:41;;;;;;;;;;;;;;;9.18;100.00;99449.16;181031;1260;43688;-87
2023/11/21 01:24:44;;;;;;;;;;;;;;;9.25;100.00;99450.27;180983;1260;43860;-87
2023/11/21 01:28:48;;;;;;;;;;;;;;;9.28;100.00;99455.39;180997;1260;44013;-86
2023/11/21 01:32:52;;;;;;;;;;;;;;;9.24;100.00;99455.71;180914;1260;59481;-87
2023/11/21 01:36:55;;;;;;;;;;;;;;;9.20;100.00;99462.63;181038;1260;43980;-86
2023/11/21 01:41:00;;;;;;;;;;;;;;;9.22;100.00;99455.02;181042;1260;43524;-87
2023/11/21 01:45:04;;;;;;;;;;;;;;;9.27;100.00;99459.85;181003;1259;43773;-84
2023/11/21 01:49:12;;;;;;;;;;;;;;;9.37;100.00;99458.85;180960;1260;43972;-85
2023/11/21 01:53:16;;;;;;;;;;;;;;;9.37;100.00;99460.57;181016;1260;59925;-85
2023/11/21 01:57:20;;;;;;;;;;;;;;;9.31;100.00;99461.31;180932;1260;43616;-87
2023/11/21 02:01:23;;;;;;;;;;;;;;;9.36;100.00;99461.56;180943;1259;43934;-86
2023/11/21 02:05:26;;;;;;;;;;;;;;;9.39;100.00;99462.88;180940;1259;43971;-85
2023/11/21 02:09:30;;;;;;;;;;;;;;;9.38;100.00;99467.38;181008;1260;43831;-86
2023/11/21 02:13:34;;;;;;;;;;;;;;;9.38;100.00;99473.36;181005;1259;59750;-86
2023/11/21 02:17:37;;;;;;;;;;;;;;;9.42;100.00;99472.19;180991;1260;43687;-85
2023/11/21 02:21:40;;;;;;;;;;;;;;;9.46;100.00;99473.94;180879;1259;43599;-87
2023/11/21 02:25:43;;;;;;;;;;;;;;;9.41;100.00;99473.27;181027;1260;43741;-84
2023/11/21 02:29:47;;;;;;;;;;;;;;;9.46;100.00;99472.71;180927;1260;43962;-85
2023/11/21 02:33:50;;;;;;;;;;;;;;;9.48;100.00;99474.31;180988;1260;59172;-86
2023/11/21 02:37:54;;;;;;;;;;;;;;;9.49;100.00;99476.86;181014;1259;43605;-83
2023/11/21 02:41:57;;;;;;;;;;;;;;;9.56;100.00;99481.88;181051;1260;43641;-86
2023/11/21 02:46:00;;;;;;;;;;;;;;;9.52;100.00;99481.23;180964;1259;43969;-87
2023/11/21 02:50:04;;;;;;;;;;;;;;;9.49;100.00;99482.36;180992;1259;43751;-84
2023/11/21 02:54:08;;;;;;;;;;;;;;;9.48;100.00;99482.60;181004;1260;57717;-85
2023/11/21 02:58:11;;;;;;;;;;;;;;;9.45;100.00;99488.15;180989;1260;43614;-87
2023/11/21 03:02:15;;;;;;;;;;;;;;;9.40;100.00;99493.09;181069;1259;43798;-87
2023/11/21 03:06:19;;;;;;;;;;;;;;;9.35;100.00;99498.05;181028;1260;43799;-87
2023/11/21 03:10:23;;;;;;;;;;;;;;;9.27;100.00;99502.30;180908;1259;44049;-87
2023/11/21 03:14:26;;;;;;;;;;;;;;;9.25;100.00;99506.95;181015;1259;58095;-85
2023/11/21 03:18:29;;;;;;;;;;;;;;;9.25;100.00;99504.40;181071;1259;43539;-86
2023/11/21 03:22:32;;;;;;;;;;;;;;;9.19;100.00;99506.54;180981;1261;43842;-86
2023/11/21 03:26:38;;;;;;;;;;;;;;;9.11;100.00;99505.63;181033;1260;43995;-87
2023/11/21 03:30:41;;;;;;;;;;;;;;;9.10;100.00;99509.84;181035;1259;43899;-87
2023/11/21 03:34:55;;;;;;;;;;;;;;;9.10;100.00;99511.94;180981;1260;58015;-85
2023/11/21 03:38:58;;;;;;;;;;;;;;;9.13;100.00;99512.36;180981;1259;43767;-85
2023/11/21 03:43:01;;;;;;;;;;;;;;;9.10;100.00;99515.42;181043;1259;43534;-87
2023/11/21 03:47:05;;;;;;;;;;;;;;;9.07;100.00;99514.51;180927;1260;43813;-86
2023/11/21 03:51:08;;;;;;;;;;;;;;;9.07;100.00;99522.65;180985;1260;43945;-87
2023/11/21 03:55:11;;;;;;;;;;;;;;;9.07;100.00;99517.35;180945;1259;58314;-87
2023/11/21 03:59:14;;;;;;;;;;;;;;;9.00;100.00;99519.00;180868;1260;43586;-88
2023/11/21 04:03:17;;;;;;;;;;;;;;;9.08;100.00;99523.80;180996;1259;43881;-86
2023/11/21 04:07:21;;;;;;;;;;;;;;;9.17;100.00;99520.03;180884;1260;43807;-84
2023/11/21 04:11:24;;;;;;;;;;;;;;;9.18;100.00;99524.71;180998;1259;43813;-86
2023/11/21 04:15:28;;;;;;;;;;;;;;;9.16;100.00;99523.97;181011;1259;59327;-87
2023/11/21 04:19:31;;;;;;;;;;;;;;;9.18;100.00;99527.48;180961;1260;43921;-88
2023/11/21 04:23:35;;;;;;;;;;;;;;;9.14;100.00;99533.93;180968;1259;43659;-87
2023/11/21 04:27:39;;;;;;;;;;;;;;;9.17;100.00;99535.92;180935;1259;43777;-87
2023/11/21 04:31:42;;;;;;;;;;;;;;;9.21;100.00;99541.41;180862;1259;43630;-87
2023/11/21 04:35:46;;;;;;;;;;;;;;;9.29;100.00;99545.13;180854;1259;58467;-88
2023/11/21 04:39:49;;;;;;;;;;;;;;;9.36;100.00;99543.48;180973;1259;43750;-87
2023/11/21 04:43:52;;;;;;;;;;;;;;;9.44;100.00;99547.55;180960;1259;43581;-87
2023/11/21 04:47:56;;;;;;;;;;;;;;;9.43;100.00;99548.72;180815;1259;43937;-86
2023/11/21 04:51:59;;;;;;;;;;;;;;;9.38;100.00;99552.66;180941;1259;43570;-85
2023/11/21 04:56:03;;;;;;;;;;;;;;;9.38;100.00;99557.42;180934;1259;58246;-87
2023/11/21 05:00:07;;;;;;;;;;;;;;;9.33;100.00;99559.98;180906;1259;44008;-86
2023/11/21 05:04:10;;;;;;;;;;;;;;;9.36;100.00;99565.10;181043;1259;43696;-85
2023/11/21 05:08:13;;;;;;;;;;;;;;;9.41;100.00;99565.90;180897;1260;44157;-85
2023/11/21 05:12:17;;;;;;;;;;;;;;;9.46;100.00;99568.96;180935;1259;43606;-88
2023/11/21 05:16:20;;;;;;;;;;;;;;;9.47;100.00;99570.50;180870;1259;59619;-85
2023/11/21 05:20:23;;;;;;;;;;;;;;;9.48;100.00;99573.95;181010;1259;43525;-87
2023/11/21 05:24:28;;;;;;;;;;;;;;;9.43;100.00;99577.52;180932;1259;43827;-87
2023/11/21 05:28:32;;;;;;;;;;;;;;;9.47;100.00;99575.95;180988;1259;43885;-86
2023/11/21 05:32:35;;;;;;;;;;;;;;;9.47;100.00;99575.23;181072;1259;43510;-86
2023/11/21 05:36:38;;;;;;;;;;;;;;;9.51;100.00;99574.70;180917;1259;59067;-86
2023/11/21 05:40:42;;;;;;;;;;;;;;;9.56;100.00;99580.95;180917;1259;43766;-87
2023/11/21 05:44:45;;;;;;;;;;;;;;;9.60;100.00;99586.84;180925;1259;43719;-85
2023/11/21 05:48:48;;;;;;;;;;;;;;;9.65;100.00;99592.23;180973;1259;43679;-87
2023/11/21 05:52:51;;;;;;;;;;;;;;;9.69;100.00;99593.63;180956;1259;43854;-86
2023/11/21 05:56:54;;;;;;;;;;;;;;;9.69;100.00;99589.11;180920;1259;59108;-87
2023/11/21 06:00:57;;;;;;;;;;;;;;;9.69;100.00;99589.77;180928;1259;43384;-87
2023/11/21 06:05:01;;;;;;;;;;;;;;;9.70;100.00;99592.66;180999;1259;43596;-85
2023/11/21 06:09:05;;;;;;;;;;;;;;;9.72;100.00;99598.55;181001;1259;43602;-87
2023/11/21 06:13:08;;;;;;;;;;;;;;;9.69;100.00;99599.98;180974;1259;43598;-87
2023/11/21 06:17:13;;;;;;;;;;;;;;;9.66;100.00;99603.86;180994;1259;59810;-81
2023/11/21 06:21:17;;;;;;;;;;;;;;;9.64;100.00;99611.80;180979;1259;43761;-88
2023/11/21 06:25:21;;;;;;;;;;;;;;;9.59;100.00;99615.04;180992;1259;43460;-84
2023/11/21 06:29:24;;;;;;;;;;;;;;;9.60;100.00;99622.11;180995;1259;43526;-87
2023/11/21 06:33:28;;;;;;;;;;;;;;;9.58;100.00;99632.88;180961;1259;43570;-87
2023/11/21 06:37:32;;;;;;;;;;;;;;;9.60;100.00;99630.55;181006;1259;57468;-86
2023/11/21 06:41:38;;;;;;;;;;;;;;;9.62;100.00;99627.91;181062;1259;43533;-86
2023/11/21 06:45:42;;;;;;;;;;;;;;;9.60;100.00;99630.59;181011;1259;43510;-87
2023/11/21 06:49:47;;;;;;;;;;;;;;;9.62;100.00;99636.63;180926;1259;44000;-84
2023/11/21 06:53:51;;;;;;;;;;;;;;;9.63;100.00;99643.03;180811;1259;43840;-87
2023/11/21 06:57:54;;;;;;;;;;;;;;;9.66;100.00;99638.58;180718;1259;247809;-85
2023/11/21 07:01:57;;;;;;;;;;;;;;;9.72;100.00;99641.20;181024;1259;43786;-88
2023/11/21 07:06:00;;;;;;;;;;;;;;;9.77;100.00;99641.13;180974;1259;43538;-87
2023/11/21 07:10:04;;;;;;;;;;;;;;;9.80;100.00;99640.53;180996;1259;43600;-86
2023/11/21 07:14:10;;;;;;;;;;;;;;;9.79;100.00;99642.15;180901;1259;43801;-85
2023/11/21 07:18:13;;;;;;;;;;;;;;;9.79;100.00;99640.05;180954;1259;60146;-84
2023/11/21 07:22:21;;;;;;;;;;;;;;;9.79;100.00;99637.53;180833;1259;43623;-86
2023/11/21 07:26:25;;;;;;;;;;;;;;;9.79;100.00;99638.66;180863;1259;43659;-87
2023/11/21 07:30:28;;;;;;;;;;;;;;;9.81;100.00;99641.98;180828;1260;43608;-88
2023/11/21 07:34:32;;;;;;;;;;;;;;;9.85;100.00;99639.32;180965;1260;43667;-85
2023/11/21 07:38:35;;;;;;;;;;;;;;;9.87;100.00;99643.27;181016;1260;59917;-83
2023/11/21 07:42:38;;;;;;;;;;;;;;;9.92;100.00;99646.67;180982;1260;43579;-88
2023/11/21 07:46:41;;;;;;;;;;;;;;;9.94;100.00;99651.71;180869;1260;43526;-85
2023/11/21 07:50:46;;;;;;;;;;;;;;;9.96;100.00;99654.15;180789;1260;43698;-86
2023/11/21 07:54:50;;;;;;;;;;;;;;;9.99;100.00;99656.38;180952;1260;43540;-85
2023/11/21 07:58:54;;;;;;;;;;;;;;;9.96;100.00;99659.46;180908;1260;57091;-84
2023/11/21 08:02:57;;;;;;;;;;;;;;;9.86;100.00;99662.78;180824;1260;43894;-85
2023/11/21 08:07:01;;;;;;;;;;;;;;;9.72;100.00;99671.83;180838;1261;43847;-86
2023/11/21 08:11:05;;;;;;;;;;;;;;;9.69;100.00;99671.90;180737;1260;43816;-87
2023/11/21 08:15:09;;;;;;;;;;;;;;;9.58;100.00;99674.86;180798;1260;43577;-87
2023/11/21 08:19:12;;;;;;;;;;;;;;;9.66;100.00;99679.05;180848;1260;57859;-87
2023/11/21 08:23:16;;;;;;;;;;;;;;;9.70;100.00;99678.75;181025;1260;43457;-85
2023/11/21 08:27:19;;;;;;;;;;;;;;;9.60;100.00;99679.42;180960;1259;43689;-85
2023/11/21 08:31:26;;;;;;;;;;;;;;;9.58;100.00;99677.11;180984;1259;43787;-87
2023/11/21 08:35:29;;;;;;;;;;;;;;;9.57;100.00;99686.79;180959;1259;43837;-85
2023/11/21 08:39:33;;;;;;;;;;;;;;;9.62;100.00;99689.69;181162;1259;57282;-86
2023/11/21 08:43:39;;;;;;;;;;;;;;;9.64;100.00;99687.38;181069;1259;43644;-85
2023/11/21 08:47:43;;;;;;;;;;;;;;;9.61;100.00;99687.84;180957;1259;43923;-87
2023/11/21 08:51:47;;;;;;;;;;;;;;;9.55;100.00;99684.41;180989;1259;43836;-85
2023/11/21 08:55:50;;;;;;;;;;;;;;;9.48;100.00;99685.98;181040;1259;43772;-87
2023/11/21 08:59:55;;;;;;;;;;;;;;;9.45;100.00;99687.23;181009;1259;60177;-80
2023/11/21 09:03:58;;;;;;;;;;;;;;;9.49;100.00;99689.02;181002;1259;43741;-86
2023/11/21 09:08:01;;;;;;;;;;;;;;;9.43;100.00;99693.50;181037;1259;43544;-87
2023/11/21 09:12:05;;;;;;;;;;;;;;;9.43;100.00;99699.98;180965;1259;43873;-85
2023/11/21 09:16:08;;;;;;;;;;;;;;;9.40;100.00;99699.38;181024;1259;43626;-87
2023/11/21 09:20:11;;;;;;;;;;;;;;;9.44;100.00;99699.21;181036;1259;58044;-86
2023/11/21 09:24:14;;;;;;;;;;;;;;;9.41;100.00;99705.14;180938;1259;43851;-86
2023/11/21 09:28:17;;;;;;;;;;;;;;;9.48;100.00;99706.84;180912;1260;43824;-87
2023/11/21 09:32:21;;;;;;;;;;;;;;;9.40;100.00;99711.20;180963;1260;43909;-87
2023/11/21 09:36:27;;;;;;;;;;;;;;;9.45;100.00;99706.90;180938;1260;43493;-85
2023/11/21 09:40:31;;;;;;;;;;;;;;;9.52;100.00;99704.55;180964;1260;57998;-86
2023/11/21 09:44:56;;;;;;;;;;;;;;;9.54;100.00;99706.29;180867;1260;43717;-86
2023/11/21 09:49:04;;;;;;;;;;;;;;;9.58;100.00;99712.00;180850;1260;43993;-87
2023/11/21 09:53:16;;;;;;;;;;;;;;;9.62;100.00;99713.64;180920;1260;43592;-85
2023/11/21 09:57:21;;;;;;;;;;;;;;;9.60;100.00;99719.41;180934;1260;43747;-85
2023/11/21 10:01:25;;;;;;;;;;;;;;;9.59;100.00;99719.83;180908;1260;58133;-88
2023/11/21 10:05:28;;;;;;;;;;;;;;;9.48;100.00;99717.06;180961;1261;43931;-86
2023/11/21 10:09:32;;;;;;;;;;;;;;;9.57;100.00;99724.46;180892;1260;43735;-87
2023/11/21 10:13:35;;;;;;;;;;;;;;;9.58;100.00;99725.30;180955;1260;43552;-86
2023/11/21 10:17:43;;;;;;;;;;;;;;;9.64;100.00;99732.75;180848;1260;43825;-88
2023/11/21 10:21:46;;;;;;;;;;;;;;;9.64;100.00;99733.27;180982;1260;58102;-87
2023/11/21 10:25:50;;;;;;;;;;;;;;;9.74;100.00;99734.18;180915;1260;43984;-84
2023/11/21 10:29:53;;;;;;;;;;;;;;;9.75;100.00;99733.84;181003;1259;43508;-84
2023/11/21 10:34:12;;;;;;;;;;;;;;;9.75;100.00;99737.29;181082;1258;43696;-87
2023/11/21 10:38:15;;;;;;;;;;;;;;;9.79;100.00;99736.54;181079;1259;44009;-83
2023/11/21 10:42:20;;;;;;;;;;;;;;;9.87;100.00;99743.09;180937;1259;56820;-87
2023/11/21 10:46:25;;;;;;;;;;;;;;;9.88;100.00;99742.31;180878;1259;43593;-86
2023/11/21 10:50:28;;;;;;;;;;;;;;;9.79;100.00;99749.27;180984;1260;43863;-87
2023/11/21 10:54:32;;;;;;;;;;;;;;;9.64;100.00;99761.36;181002;1259;43769;-86
2023/11/21 10:58:35;;;;;;;;;;;;;;;9.44;100.00;99770.86;181002;1259;43820;-86
2023/11/21 11:02:39;;;;;;;;;;;;;;;9.22;100.00;99769.38;181066;1259;58656;-87
2023/11/21 11:06:43;;;;;;;;;;;;;;;8.95;100.00;99776.95;180950;1259;43796;-86
2023/11/21 11:10:47;;;;;;;;;;;;;;;8.67;100.00;99788.08;181054;1259;43557;-84
2023/11/21 11:14:51;;;;;;;;;;;;;;;8.44;100.00;99794.40;180948;1259;43784;-86
2023/11/21 11:18:54;;;;;;;;;;;;;;;8.17;100.00;99799.80;180941;1259;43962;-86
2023/11/21 11:23:16;;;;;;;;;;;;;;;7.95;100.00;99804.45;181009;1259;58029;-85
2023/11/21 11:27:41;;;;;;;;;;;;;;;7.76;100.00;99809.52;180989;1259;43439;-86
2023/11/21 11:32:05;;;;;;;;;;;;;;;7.51;100.00;99811.60;180954;1259;43505;-87
2023/11/21 11:36:34;;;;;;;;;;;;;;;7.28;100.00;99824.08;181013;1259;44699;-86
2023/11/21 11:40:46;;;;;;;;;;;;;;;7.07;100.00;99825.65;180964;1260;43742;-85
2023/11/21 11:44:51;;;;;;;;;;;;;;;6.92;100.00;99827.27;180925;1259;57712;-87
2023/11/21 11:49:03;;;;;;;;;;;;;;;6.80;100.00;99830.02;180898;1259;43523;-86
2023/11/21 11:53:14;;;;;;;;;;;;;;;6.70;100.00;99845.05;181014;1259;43887;-85
2023/11/21 11:57:17;;;;;;;;;;;;;;;6.59;100.00;99845.15;180979;1259;46720;-87
2023/11/21 12:01:20;;;;;;;;;;;;;;;6.42;100.00;99852.34;181079;1259;43807;-86
2023/11/21 12:05:27;;;;;;;;;;;;;;;6.24;100.00;99854.98;180960;1260;58696;-85
2023/11/21 12:09:31;;;;;;;;;;;;;;;6.11;100.00;99869.66;181020;1259;43577;-84
2023/11/21 12:13:34;;;;;;;;;;;;;;;5.97;100.00;99869.16;180882;1261;43736;-86
2023/11/21 12:17:38;;;;;;;;;;;;;;;5.89;100.00;99870.04;180985;1260;43955;-86
2023/11/21 12:21:42;;;;;;;;;;;;;;;5.84;100.00;99878.09;181087;1259;43841;-87
2023/11/21 12:25:45;;;;;;;;;;;;;;;5.79;100.00;99882.91;181127;1259;58033;-87
2023/11/21 12:29:48;;;;;;;;;;;;;;;5.78;100.00;99887.35;181048;1261;43673;-86
2023/11/21 12:33:51;;;;;;;;;;;;;;;5.73;100.00;99903.33;181224;1262;43609;-84
2023/11/21 12:37:57;;;;;;;;;;;;;;;5.66;100.00;99906.45;180976;1262;43563;-85
2023/11/21 12:42:02;;;;;;;;;;;;;;;5.54;100.00;99910.04;181024;1260;44050;-84
2023/11/21 12:46:06;;;;;;;;;;;;;;;5.38;100.00;99918.14;180994;1260;58090;-87
2023/11/21 12:50:15;;;;;;;;;;;;;;;5.26;100.00;99918.90;180940;1262;43936;-84
2023/11/21 12:54:19;;;;;;;;;;;;;;;5.17;100.00;99926.92;180849;1261;44007;-83
2023/11/21 12:58:25;;;;;;;;;;;;;;;5.15;100.00;99931.41;180887;1261;44005;-86
2023/11/21 13:02:30;;;;;;;;;;;;;;;5.10;100.00;99940.55;180953;1260;43746;-87
2023/11/21 13:06:38;;;;;;;;;;;;;;;5.05;100.00;99948.61;180923;1264;58043;-85
2023/11/21 13:10:46;;;;;;;;;;;;;;;4.98;100.00;99959.70;180957;1260;43917;-86
2023/11/21 13:14:49;;;;;;;;;;;;;;;4.92;100.00;99966.27;180943;1261;43826;-87
2023/11/21 13:18:53;;;;;;;;;;;;;;;4.87;100.00;99973.23;180946;1262;43594;-84
2023/11/21 13:22:59;;;;;;;;;;;;;;;4.84;100.00;99981.87;180865;1262;43829;-83
2023/11/21 13:27:02;;;;;;;;;;;;;;;4.80;100.00;99993.36;180983;1260;58925;-77
2023/11/21 13:31:22;;;;;;;;;;;;;;;4.75;100.00;99998.27;181090;1259;43498;-85
2023/11/21 13:35:41;;;;;;;;;;;;;;;4.72;100.00;100002.64;181068;1259;43510;-84
2023/11/21 13:39:56;;;;;;;;;;;;;;;4.68;100.00;100006.00;181033;1259;43842;-85
2023/11/21 13:44:26;;;;;;;;;;;;;;;4.73;100.00;100004.88;181051;1259;43561;-83
2023/11/21 13:48:40;;;;;;;;;;;;;;;4.72;100.00;100014.25;181041;1259;59263;-84
2023/11/21 13:52:44;;;;;;;;;;;;;;;4.62;100.00;100028.54;180999;1259;43566;-79
2023/11/21 13:56:47;;;;;;;;;;;;;;;4.57;100.00;100035.35;181008;1259;43716;-84
2023/11/21 14:00:56;;;;;;;;;;;;;;;4.51;100.00;100045.14;181032;1260;43532;-85
2023/11/21 14:05:02;;;;;;;;;;;;;;;4.42;100.00;100062.40;181019;1259;43852;-85
2023/11/21 14:09:07;;;;;;;;;;;;;;;4.35;100.00;100065.64;181006;1259;59558;-84
2023/11/21 14:13:10;;;;;;;;;;;;;;;4.32;100.00;100068.59;181069;1259;43568;-84
2023/11/21 14:17:13;;;;;;;;;;;;;;;4.30;100.00;100075.89;181044;1259;43909;-81
2023/11/21 14:21:17;;;;;;;;;;;;;;;4.25;100.00;100085.88;181095;1259;44100;-85
2023/11/21 14:25:22;;;;;;;;;;;;;;;4.21;100.00;100095.39;181169;1259;43733;-83
2023/11/21 14:29:27;;;;;;;;;;;;;;;4.17;100.00;100105.45;180905;1263;57872;-85
2023/11/21 14:33:30;;;;;;;;;;;;;;;4.14;100.00;100111.59;181032;1259;43676;-82
2023/11/21 14:37:33;;;;;;;;;;;;;;;4.06;100.00;100125.57;180943;1259;44020;-85
2023/11/21 14:41:38;;;;;;;;;;;;;;;4.00;100.00;100127.49;180905;1259;43553;-85
2023/11/21 14:45:41;;;;;;;;;;;;;;;3.95;100.00;100132.00;181050;1259;43461;-83
2023/11/21 14:49:53;;;;;;;;;;;;;;;3.86;100.00;100132.61;181010;1259;59366;-85
2023/11/21 14:54:05;;;;;;;;;;;;;;;3.81;100.00;100134.14;180935;1259;43717;-85
2023/11/21 14:58:12;;;;;;;;;;;;;;;3.81;100.00;100140.27;180943;1259;43710;-86
2023/11/21 15:02:20;;;;;;;;;;;;;;;3.82;100.00;100144.62;181030;1259;43767;-84
2023/11/21 15:06:29;;;;;;;;;;;;;;;3.80;100.00;100151.02;180942;1263;43670;-85
2023/11/21 15:10:45;;;;;;;;;;;;;;;3.79;100.00;100158.10;181033;1260;59699;-85
2023/11/21 15:14:53;;;;;;;;;;;;;;;3.75;100.00;100161.87;181045;1259;43597;-85
2023/11/21 15:18:58;;;;;;;;;;;;;;;3.64;100.00;100166.80;181165;1259;43758;-84
2023/11/21 15:23:02;;;;;;;;;;;;;;;3.55;100.00;100173.80;181079;1259;44023;-85
2023/11/21 15:27:07;;;;;;;;;;;;;;;3.51;100.00;100180.67;181082;1261;43658;-85
2023/11/21 15:31:10;;;;;;;;;;;;;;;3.44;100.00;100184.02;181025;1261;58072;-84
2023/11/21 15:35:14;;;;;;;;;;;;;;;3.36;100.00;100181.67;180944;1261;46621;-83
2023/11/21 15:39:17;;;;;;;;;;;;;;;3.30;100.00;100193.86;180907;1260;43906;-84
2023/11/21 15:43:20;;;;;;;;;;;;;;;3.25;100.00;100200.95;180847;1261;44074;-83
2023/11/21 15:47:24;;;;;;;;;;;;;;;3.24;100.00;100209.45;180960;1261;43598;-83
2023/11/21 15:51:27;;;;;;;;;;;;;;;3.23;100.00;100221.95;180904;1260;58040;-83
2023/11/21 15:55:30;;;;;;;;;;;;;;;3.18;100.00;100233.94;180956;1261;43669;-83
2023/11/21 15:59:33;;;;;;;;;;;;;;;3.15;100.00;100245.65;180829;1261;43764;-80
2023/11/21 16:03:37;;;;;;;;;;;;;;;3.13;100.00;100249.79;180931;1263;43883;-82
2023/11/21 16:07:41;;;;;;;;;;;;;;;3.06;100.00;100260.30;180756;1261;43939;-82
2023/11/21 16:11:44;;;;;;;;;;;;;;;3.01;100.00;100266.87;180925;1260;59192;-82
2023/11/21 16:15:47;;;;;;;;;;;;;;;3.00;100.00;100265.68;180929;1260;43592;-82
2023/11/21 16:19:55;;;;;;;;;;;;;;;2.96;100.00;100266.23;180918;1262;43506;-82
2023/11/21 16:23:58;;;;;;;;;;;;;;;2.89;100.00;100270.79;180879;1262;43919;-83
2023/11/21 16:28:03;;;;;;;;;;;;;;;2.81;100.00;100273.61;180953;1260;43789;-82
2023/11/21 16:32:07;;;;;;;;;;;;;;;2.74;100.00;100286.95;181001;1259;58173;-82
2023/11/21 16:36:10;;;;;;;;;;;;;;;2.68;100.00;100291.92;181001;1261;43865;-81
2023/11/21 16:40:13;;;;;;;;;;;;;;;2.66;100.00;100294.30;181007;1260;43875;-82
2023/11/21 16:44:17;;;;;;;;;;;;;;;2.65;100.00;100304.00;181029;1260;43538;-81
2023/11/21 16:48:20;;;;;;;;;;;;;;;2.65;100.00;100306.63;181058;1262;43522;-82
2023/11/21 16:52:23;;;;;;;;;;;;;;;2.66;100.00;100314.96;181039;1261;59488;-82
2023/11/21 16:56:27;;;;;;;;;;;;;;;2.65;100.00;100325.17;181127;1260;43590;-81
2023/11/21 17:00:30;;;;;;;;;;;;;;;2.60;100.00;100327.34;180971;1260;43653;-81
2023/11/21 17:04:34;;;;;;;;;;;;;;;2.56;100.00;100334.92;180947;1262;43833;-79
2023/11/21 17:08:37;;;;;;;;;;;;;;;2.52;100.00;100341.39;180942;1259;43512;-81
2023/11/21 17:12:40;;;;;;;;;;;;;;;2.50;100.00;100351.10;181038;1261;63375;-81
2023/11/21 17:16:45;;;;;;;;;;;;;;;2.52;100.00;100362.38;180984;1260;43636;-81
2023/11/21 17:20:48;;;;;;;;;;;;;;;2.49;100.00;100366.05;181072;1259;43547;-82
2023/11/21 17:24:51;;;;;;;;;;;;;;;2.48;100.00;100371.20;180951;1260;43902;-82
2023/11/21 17:28:56;;;;;;;;;;;;;;;2.46;100.00;100372.48;180985;1260;43826;-81
2023/11/21 17:32:59;;;;;;;;;;;;;;;2.48;100.00;100378.89;180913;1260;59388;-81
2023/11/21 17:37:04;;;;;;;;;;;;;;;2.45;100.00;100387.77;180989;1261;43886;-80
2023/11/21 17:41:10;;;;;;;;;;;;;;;2.40;100.00;100399.72;181045;1260;43855;-81
2023/11/21 17:45:15;;;;;;;;;;;;;;;2.35;100.00;100402.73;180967;1260;43927;-81
2023/11/21 17:49:18;;;;;;;;;;;;;;;2.26;100.00;100401.57;181034;1259;43946;-81
2023/11/21 17:53:21;;;;;;;;;;;;;;;2.16;100.00;100408.12;180889;1261;59795;-82
2023/11/21 17:57:25;;;;;;;;;;;;;;;2.06;100.00;100409.98;180963;1260;44261;-80
2023/11/21 18:01:33;;;;;;;;;;;;;;;2.01;100.00;100414.73;181023;1260;43656;-81
2023/11/21 18:05:37;;;;;;;;;;;;;;;1.94;100.00;100422.55;180958;1260;43763;-82
2023/11/21 18:09:40;;;;;;;;;;;;;;;1.88;100.00;100430.02;180991;1260;43825;-80
2023/11/21 18:13:43;;;;;;;;;;;;;;;1.85;100.00;100435.38;180943;1260;57071;-81
2023/11/21 18:17:46;;;;;;;;;;;;;;;1.84;100.00;100430.14;180988;1260;43765;-82
2023/11/21 18:21:48;;;;;;;;;;;;;;;1.89;100.00;100437.67;180992;1259;43948;-82
2023/11/21 18:25:52;;;;;;;;;;;;;;;1.87;100.00;100443.86;180952;1260;44100;-82
2023/11/21 18:29:55;;;;;;;;;;;;;;;1.85;100.00;100449.36;180919;1260;43791;-82
2023/11/21 18:33:59;;;;;;;;;;;;;;;1.86;100.00;100454.92;181017;1260;59400;-82
2023/11/21 18:38:02;;;;;;;;;;;;;;;1.87;100.00;100458.23;180994;1259;43570;-82
2023/11/21 18:42:05;;;;;;;;;;;;;;;1.86;100.00;100460.86;180872;1260;43519;-80
2023/11/21 18:46:08;;;;;;;;;;;;;;;1.83;100.00;100464.80;180992;1260;43975;-82
2023/11/21 18:50:16;;;;;;;;;;;;;;;1.88;100.00;100468.67;180994;1260;43791;-82
2023/11/21 18:54:20;;;;;;;;;;;;;;;1.91;100.00;100474.83;180881;1260;60118;-82
2023/11/21 18:58:23;;;;;;;;;;;;;;;1.92;100.00;100480.88;180868;1260;197914;-82
2023/11/21 19:02:27;;;;;;;;;;;;;;;1.97;100.00;100486.80;180917;1260;43782;-82
2023/11/21 19:06:30;;;;;;;;;;;;;;;2.01;100.00;100495.02;180999;1260;43646;-80
2023/11/21 19:10:34;;;;;;;;;;;;;;;2.02;100.00;100504.43;181039;1260;43540;-82
2023/11/21 19:14:37;;;;;;;;;;;;;;;2.03;100.00;100508.10;180914;1260;59293;-83
2023/11/21 19:18:43;;;;;;;;;;;;;;;2.04;100.00;100515.02;180950;1260;43914;-82
2023/11/21 19:22:46;;;;;;;;;;;;;;;2.04;100.00;100525.89;180974;1259;43811;-83
2023/11/21 19:26:50;;;;;;;;;;;;;;;2.02;100.00;100534.35;181031;1259;43713;-83
2023/11/21 19:30:53;;;;;;;;;;;;;;;2.01;100.00;100529.48;181000;1260;43910;-82
2023/11/21 19:34:56;;;;;;;;;;;;;;;2.01;100.00;100535.11;181048;1259;59721;-83
2023/11/21 19:38:59;;;;;;;;;;;;;;;2.01;100.00;100535.63;181077;1260;43810;-83
2023/11/21 19:43:03;;;;;;;;;;;;;;;2.03;100.00;100542.17;180915;1259;43574;-83
2023/11/21 19:47:06;;;;;;;;;;;;;;;2.02;100.00;100543.81;181025;1260;43521;-83
2023/11/21 19:51:11;;;;;;;;;;;;;;;2.04;100.00;100540.90;180972;1260;43575;-83
2023/11/21 19:55:16;;;;;;;;;;;;;;;2.04;100.00;100541.98;180900;1259;60363;-83
2023/11/21 19:59:19;;;;;;;;;;;;;;;2.02;100.00;100560.59;180971;1260;43612;-83
2023/11/21 20:03:24;;;;;;;;;;;;;;;2.06;100.00;100566.04;180980;1260;43637;-82
2023/11/21 20:07:28;;;;;;;;;;;;;;;2.04;100.00;100578.52;181038;1260;43837;-83
2023/11/21 20:11:31;;;;;;;;;;;;;;;2.02;100.00;100589.83;180949;1260;43599;-84
2023/11/21 20:15:34;;;;;;;;;;;;;;;1.99;100.00;100598.34;180888;1260;58007;-84
2023/11/21 20:19:37;;;;;;;;;;;;;;;1.96;100.00;100604.92;180982;1259;43928;-84
2023/11/21 20:23:42;;;;;;;;;;;;;;;1.93;100.00;100609.42;181028;1259;43800;-84
2023/11/21 20:27:46;;;;;;;;;;;;;;;1.88;100.00;100617.49;180977;1260;43668;-84
2023/11/21 20:31:49;;;;;;;;;;;;;;;1.83;100.00;100622.93;180819;1260;43589;-84
2023/11/21 20:35:53;;;;;;;;;;;;;;;1.76;100.00;100634.76;180916;1260;57842;-83
2023/11/21 20:39:56;;;;;;;;;;;;;;;1.71;100.00;100637.40;180982;1260;43788;-83
2023/11/21 20:44:01;;;;;;;;;;;;;;;1.70;100.00;100641.45;180857;1260;43737;-84
2023/11/21 20:48:05;;;;;;;;;;;;;;;1.70;100.00;100648.44;180921;1260;43763;-85
2023/11/21 20:52:09;;;;;;;;;;;;;;;1.68;100.00;100653.08;180925;1261;43510;-83